Time;durP1;ratioP1;P1;durP2;ratioP2;P2;SDS_P1;SDS_P2;PMS_P1;PMS_P2;Temp;Humidity;BMP_temperature;BMP_pressure;BME280_temperature;BME280_humidity;BME280_pressure;Samples;Min_cycle;Max_cycle;Signal;HPM_P1;HPM_P2
2021/10/12 00:01:55;;;;;;;28.20;11.60;;;;;;;;;;5071742;28;20060;-64
2021/10/12 00:04:25;;;;;;;28.70;11.65;;;;;;;;;;5068658;28;20068;-64
2021/10/12 00:06:53;;;;;;;25.05;11.30;;;;;;;;;;5072508;28;20075;-64
2021/10/12 00:09:22;;;;;;;28.42;11.50;;;;;;;;;;5066720;28;20136;-64
2021/10/12 00:11:52;;;;;;;29.42;11.40;;;;;;;;;;5071508;28;20419;-64
2021/10/12 00:14:20;;;;;;;26.10;12.02;;;;;;;;;;5076902;28;20131;-64
2021/10/12 00:16:48;;;;;;;27.17;11.23;;;;;;;;;;5056241;28;20056;-66
2021/10/12 00:19:17;;;;;;;29.77;11.77;;;;;;;;;;5064223;28;20449;-64
2021/10/12 00:21:46;;;;;;;22.92;10.68;;;;;;;;;;5064413;28;20511;-64
2021/10/12 00:24:15;;;;;;;24.33;10.50;;;;;;;;;;5061974;28;20045;-63
2021/10/12 00:26:43;;;;;;;27.52;12.02;;;;;;;;;;5064134;28;20136;-64
2021/10/12 00:29:11;;;;;;;27.20;11.43;;;;;;;;;;5063358;28;20139;-64
2021/10/12 00:31:39;;;;;;;23.55;10.93;;;;;;;;;;5075702;28;20135;-64
2021/10/12 00:34:08;;;;;;;22.35;10.48;;;;;;;;;;5067835;28;20057;-64
2021/10/12 00:36:36;;;;;;;23.60;10.23;;;;;;;;;;5071882;28;20135;-66
2021/10/12 00:39:06;;;;;;;26.65;10.18;;;;;;;;;;5063384;28;20127;-63
2021/10/12 00:41:34;;;;;;;21.73;9.50;;;;;;;;;;5066445;28;20143;-64
2021/10/12 00:44:03;;;;;;;18.63;9.05;;;;;;;;;;5055874;28;20049;-66
2021/10/12 00:46:31;;;;;;;26.52;9.77;;;;;;;;;;5056766;28;20146;-64
2021/10/12 00:49:00;;;;;;;18.85;8.55;;;;;;;;;;5066256;28;20056;-64
2021/10/12 00:51:28;;;;;;;19.60;7.85;;;;;;;;;;5052108;28;20127;-64
2021/10/12 00:53:56;;;;;;;17.23;7.78;;;;;;;;;;5067934;28;20147;-64
2021/10/12 00:56:26;;;;;;;18.67;7.78;;;;;;;;;;5067875;28;20131;-64
2021/10/12 00:58:54;;;;;;;19.08;8.00;;;;;;;;;;5067849;28;20076;-64
2021/10/12 01:01:23;;;;;;;20.95;8.35;;;;;;;;;;5069107;28;20060;-64
2021/10/12 01:03:51;;;;;;;20.30;8.45;;;;;;;;;;5063033;28;20114;-64
2021/10/12 01:06:20;;;;;;;15.65;7.75;;;;;;;;;;5077076;28;20131;-65
2021/10/12 01:08:48;;;;;;;16.50;6.82;;;;;;;;;;5070192;28;20139;-67
2021/10/12 01:11:16;;;;;;;14.90;6.85;;;;;;;;;;5065318;28;20478;-67
2021/10/12 01:13:46;;;;;;;16.90;6.50;;;;;;;;;;5063725;28;20488;-66
2021/10/12 01:16:15;;;;;;;13.25;6.38;;;;;;;;;;5070276;28;20385;-66
2021/10/12 01:18:55;;;;;;;16.30;5.68;;;;;;;;;;5068512;28;20048;-64
2021/10/12 01:21:25;;;;;;;16.98;5.72;;;;;;;;;;5060297;28;20133;-64
2021/10/12 01:23:53;;;;;;;14.18;6.35;;;;;;;;;;5062594;28;20057;-64
2021/10/12 01:26:21;;;;;;;15.85;6.38;;;;;;;;;;5069367;28;20040;-65
2021/10/12 01:28:50;;;;;;;11.07;5.47;;;;;;;;;;5069847;28;20050;-68
2021/10/12 01:31:20;;;;;;;13.73;5.85;;;;;;;;;;5066853;28;20080;-68
2021/10/12 01:33:48;;;;;;;17.35;6.10;;;;;;;;;;5058364;28;20110;-67
2021/10/12 01:36:17;;;;;;;16.65;5.90;;;;;;;;;;5065043;28;20124;-64
2021/10/12 01:38:46;;;;;;;13.45;6.75;;;;;;;;;;5070251;28;20131;-65
2021/10/12 01:41:15;;;;;;;12.90;5.45;;;;;;;;;;5061091;28;20128;-64
2021/10/12 01:43:43;;;;;;;14.27;5.72;;;;;;;;;;5069310;28;20068;-64
2021/10/12 01:46:12;;;;;;;15.70;6.18;;;;;;;;;;5064985;28;20441;-64
2021/10/12 01:48:40;;;;;;;17.92;6.60;;;;;;;;;;5056104;28;20055;-64
2021/10/12 01:51:08;;;;;;;18.52;7.30;;;;;;;;;;5067827;28;20050;-65
2021/10/12 01:53:37;;;;;;;13.73;6.32;;;;;;;;;;5068137;28;20048;-64
2021/10/12 01:56:07;;;;;;;15.90;6.20;;;;;;;;;;5069422;28;20415;-64
2021/10/12 01:58:35;;;;;;;14.95;6.80;;;;;;;;;;5064418;28;20051;-64
2021/10/12 02:01:03;;;;;;;18.05;7.40;;;;;;;;;;5066031;28;20127;-64
2021/10/12 02:03:32;;;;;;;14.63;7.10;;;;;;;;;;5069018;28;20520;-67
2021/10/12 02:06:00;;;;;;;16.08;6.43;;;;;;;;;;5062571;28;20136;-64
2021/10/12 02:08:28;;;;;;;18.95;7.90;;;;;;;;;;5067856;28;20510;-65
2021/10/12 02:10:57;;;;;;;19.50;8.57;;;;;;;;;;5055677;28;20127;-64
2021/10/12 02:13:26;;;;;;;16.20;7.63;;;;;;;;;;5069468;28;20160;-64
2021/10/12 02:15:55;;;;;;;21.35;8.15;;;;;;;;;;5051384;28;20132;-64
2021/10/12 02:18:23;;;;;;;17.80;8.00;;;;;;;;;;5066158;28;20045;-64
2021/10/12 02:20:51;;;;;;;21.17;7.82;;;;;;;;;;5061144;28;20131;-66
2021/10/12 02:23:19;;;;;;;20.50;8.10;;;;;;;;;;5055004;28;20048;-64
2021/10/12 02:25:48;;;;;;;18.17;7.57;;;;;;;;;;5054569;28;20084;-65
2021/10/12 02:28:16;;;;;;;19.27;8.05;;;;;;;;;;5066920;28;20116;-64
2021/10/12 02:30:45;;;;;;;25.20;8.40;;;;;;;;;;5069227;28;20412;-64
2021/10/12 02:33:14;;;;;;;19.65;7.95;;;;;;;;;;5062325;28;20132;-64
2021/10/12 02:35:42;;;;;;;16.83;7.50;;;;;;;;;;5057918;28;20048;-65
2021/10/12 02:38:10;;;;;;;16.65;7.82;;;;;;;;;;5068956;28;20128;-64
2021/10/12 02:40:39;;;;;;;16.23;7.32;;;;;;;;;;5057897;28;20088;-67
2021/10/12 02:43:07;;;;;;;21.02;8.40;;;;;;;;;;5068246;28;20503;-65
2021/10/12 02:45:36;;;;;;;18.45;7.05;;;;;;;;;;5064028;28;20040;-64
2021/10/12 02:48:05;;;;;;;16.13;7.40;;;;;;;;;;5063561;28;20144;-64
2021/10/12 02:50:34;;;;;;;18.52;7.70;;;;;;;;;;5068062;28;20804;-64
2021/10/12 02:53:02;;;;;;;27.15;8.32;;;;;;;;;;5068336;28;20044;-64
2021/10/12 02:55:30;;;;;;;21.42;8.55;;;;;;;;;;5064855;28;20495;-66
2021/10/12 02:57:59;;;;;;;22.95;9.00;;;;;;;;;;5066031;28;20106;-67
2021/10/12 03:00:27;;;;;;;22.35;8.70;;;;;;;;;;5056195;28;20092;-64
2021/10/12 03:02:55;;;;;;;19.02;8.27;;;;;;;;;;5065466;28;20503;-64
2021/10/12 03:05:25;;;;;;;20.90;8.25;;;;;;;;;;5061322;28;20052;-64
2021/10/12 03:07:53;;;;;;;19.88;8.57;;;;;;;;;;5068614;28;20468;-63
2021/10/12 03:10:22;;;;;;;19.30;7.82;;;;;;;;;;5068633;28;20128;-64
2021/10/12 03:12:50;;;;;;;17.30;7.82;;;;;;;;;;5067687;28;20131;-66
2021/10/12 03:15:18;;;;;;;22.35;8.52;;;;;;;;;;5058205;28;20052;-65
2021/10/12 03:17:47;;;;;;;20.90;8.98;;;;;;;;;;5065044;28;20123;-65
2021/10/12 03:20:16;;;;;;;22.15;8.48;;;;;;;;;;5064332;28;20127;-63
2021/10/12 03:22:46;;;;;;;19.65;8.77;;;;;;;;;;5063387;28;20056;-65
2021/10/12 03:25:14;;;;;;;22.80;9.75;;;;;;;;;;5057439;28;20132;-64
2021/10/12 03:27:42;;;;;;;22.25;9.35;;;;;;;;;;5005306;28;20136;-64
2021/10/12 03:30:11;;;;;;;26.05;9.95;;;;;;;;;;335909;28;10022773;-64
2021/10/12 03:32:39;;;;;;;24.23;9.40;;;;;;;;;;5063032;28;20044;-64
2021/10/12 03:35:08;;;;;;;24.90;10.27;;;;;;;;;;5064218;28;20144;-64
2021/10/12 03:37:36;;;;;;;22.35;10.55;;;;;;;;;;5066770;28;20049;-66
2021/10/12 03:40:07;;;;;;;29.27;10.82;;;;;;;;;;5070293;28;20080;-64
2021/10/12 03:42:35;;;;;;;21.55;9.23;;;;;;;;;;5059582;28;20133;-64
2021/10/12 03:45:03;;;;;;;21.55;9.43;;;;;;;;;;5056126;28;20139;-70
2021/10/12 03:47:32;;;;;;;17.95;7.97;;;;;;;;;;5058215;28;20087;-67
2021/10/12 03:50:00;;;;;;;20.67;9.70;;;;;;;;;;5071015;28;20473;-64
2021/10/12 03:52:28;;;;;;;22.42;8.80;;;;;;;;;;5060346;28;20049;-65
2021/10/12 03:54:57;;;;;;;24.60;9.52;;;;;;;;;;5070688;28;20117;-63
2021/10/12 03:57:26;;;;;;;20.27;9.02;;;;;;;;;;5068465;28;20131;-65
2021/10/12 03:59:54;;;;;;;21.40;9.00;;;;;;;;;;5069803;28;20051;-69
2021/10/12 04:02:23;;;;;;;23.73;9.07;;;;;;;;;;5069616;28;20399;-65
2021/10/12 04:04:51;;;;;;;21.10;8.73;;;;;;;;;;5069844;28;20067;-65
2021/10/12 04:07:19;;;;;;;17.42;8.57;;;;;;;;;;5071838;28;20143;-64
2021/10/12 04:09:47;;;;;;;22.20;9.48;;;;;;;;;;5057736;28;20415;-66
2021/10/12 04:12:16;;;;;;;24.42;9.75;;;;;;;;;;5070312;28;20076;-66
2021/10/12 04:14:46;;;;;;;21.85;9.00;;;;;;;;;;5061233;28;20072;-63
2021/10/12 04:17:14;;;;;;;22.85;10.05;;;;;;;;;;5064855;28;20049;-65
2021/10/12 04:19:42;;;;;;;33.33;11.77;;;;;;;;;;5060869;28;20048;-64
2021/10/12 04:22:10;;;;;;;24.17;10.63;;;;;;;;;;5063042;28;20091;-64
2021/10/12 04:24:39;;;;;;;25.05;10.32;;;;;;;;;;5071011;28;20080;-66
2021/10/12 04:27:07;;;;;;;24.85;10.45;;;;;;;;;;5068913;28;20068;-65
2021/10/12 04:29:36;;;;;;;21.40;9.88;;;;;;;;;;5053828;28;20135;-63
2021/10/12 04:32:06;;;;;;;24.10;10.40;;;;;;;;;;5069500;28;20131;-64
2021/10/12 04:34:34;;;;;;;24.35;10.68;;;;;;;;;;5067913;28;20048;-65
2021/10/12 04:37:02;;;;;;;25.92;11.00;;;;;;;;;;5070947;28;20139;-64
2021/10/12 04:39:31;;;;;;;25.02;10.45;;;;;;;;;;5071715;28;20132;-65
2021/10/12 04:42:01;;;;;;;28.48;9.75;;;;;;;;;;5059605;28;20133;-65
2021/10/12 04:44:33;;;;;;;26.05;10.23;;;;;;;;;;5051875;28;20140;-67
2021/10/12 04:47:01;;;;;;;28.52;10.80;;;;;;;;;;5064657;28;20045;-66
2021/10/12 04:49:31;;;;;;;27.17;9.82;;;;;;;;;;5064361;28;20076;-64
2021/10/12 04:51:59;;;;;;;28.88;12.02;;;;;;;;;;5062650;28;20131;-65
2021/10/12 04:54:27;;;;;;;32.60;11.93;;;;;;;;;;5060640;28;20060;-65
2021/10/12 04:56:55;;;;;;;28.27;11.15;;;;;;;;;;5069623;28;20534;-64
2021/10/12 04:59:24;;;;;;;28.75;11.15;;;;;;;;;;5070416;28;20492;-68
2021/10/12 05:01:52;;;;;;;30.10;10.93;;;;;;;;;;5059544;28;20084;-65
2021/10/12 05:04:21;;;;;;;29.98;12.20;;;;;;;;;;5065954;28;20114;-67
2021/10/12 05:06:50;;;;;;;25.73;11.15;;;;;;;;;;5061721;28;20047;-67
2021/10/12 05:09:19;;;;;;;29.73;12.35;;;;;;;;;;5071923;28;20054;-68
2021/10/12 05:11:47;;;;;;;33.20;12.20;;;;;;;;;;5067307;28;20471;-64
2021/10/12 05:14:17;;;;;;;39.13;13.93;;;;;;;;;;5066235;28;20056;-65
2021/10/12 05:16:48;;;;;;;30.83;12.82;;;;;;;;;;5065997;28;20083;-67
2021/10/12 05:19:16;;;;;;;29.95;12.27;;;;;;;;;;5058126;28;20124;-64
2021/10/12 05:21:45;;;;;;;33.92;12.98;;;;;;;;;;5063370;28;20488;-65
2021/10/12 05:24:15;;;;;;;32.53;12.77;;;;;;;;;;5064509;28;20056;-67
2021/10/12 05:26:43;;;;;;;30.48;11.60;;;;;;;;;;5066965;28;20048;-66
2021/10/12 05:29:12;;;;;;;35.63;12.95;;;;;;;;;;5068768;28;20044;-66
2021/10/12 05:31:40;;;;;;;36.58;12.65;;;;;;;;;;5088221;28;20372;-65
2021/10/12 05:34:09;;;;;;;30.02;13.02;;;;;;;;;;5078161;28;20448;-66
2021/10/12 05:36:37;;;;;;;36.00;12.50;;;;;;;;;;5047765;28;20469;-66
2021/10/12 05:39:06;;;;;;;36.22;12.75;;;;;;;;;;5049405;28;20574;-66
2021/10/12 05:41:35;;;;;;;37.25;13.95;;;;;;;;;;5065699;28;20094;-66
2021/10/12 05:44:03;;;;;;;43.42;14.27;;;;;;;;;;5060508;28;20392;-65
2021/10/12 05:46:32;;;;;;;39.58;14.07;;;;;;;;;;5067774;28;20070;-65
2021/10/12 05:49:00;;;;;;;36.28;12.80;;;;;;;;;;5062548;28;20071;-64
2021/10/12 05:51:29;;;;;;;34.53;13.00;;;;;;;;;;5073722;28;20077;-64
2021/10/12 05:53:59;;;;;;;43.90;13.82;;;;;;;;;;5066843;28;20407;-65
2021/10/12 05:56:28;;;;;;;42.03;14.75;;;;;;;;;;5057349;28;20045;-66
2021/10/12 05:58:58;;;;;;;39.05;14.32;;;;;;;;;;5066789;28;20288;-65
2021/10/12 06:01:27;;;;;;;35.22;13.48;;;;;;;;;;5053965;28;20132;-65
2021/10/12 06:03:55;;;;;;;37.13;13.88;;;;;;;;;;5055367;28;20496;-65
2021/10/12 06:06:24;;;;;;;34.35;12.48;;;;;;;;;;5057490;28;20453;-65
2021/10/12 06:08:52;;;;;;;35.17;13.05;;;;;;;;;;5051044;28;20080;-70
2021/10/12 06:11:20;;;;;;;30.73;13.07;;;;;;;;;;5073884;28;20046;-66
2021/10/12 06:13:51;;;;;;;31.88;12.60;;;;;;;;;;5066722;28;20109;-68
2021/10/12 06:16:21;;;;;;;34.38;13.60;;;;;;;;;;5056219;28;20105;-69
2021/10/12 06:18:49;;;;;;;31.92;12.75;;;;;;;;;;5053651;28;20143;-67
2021/10/12 06:21:17;;;;;;;28.65;12.00;;;;;;;;;;5064616;28;20040;-66
2021/10/12 06:23:46;;;;;;;43.97;13.73;;;;;;;;;;5066852;28;20107;-65
2021/10/12 06:26:14;;;;;;;39.78;13.43;;;;;;;;;;5074600;28;20573;-64
2021/10/12 06:28:43;;;;;;;32.53;13.32;;;;;;;;;;5066287;28;20565;-69
2021/10/12 06:31:11;;;;;;;33.40;13.88;;;;;;;;;;5067113;28;20120;-65
2021/10/12 06:33:41;;;;;;;31.77;12.27;;;;;;;;;;5066577;28;20155;-66
2021/10/12 06:36:09;;;;;;;36.67;13.52;;;;;;;;;;5063131;28;20048;-65
2021/10/12 06:38:37;;;;;;;31.55;13.23;;;;;;;;;;5067031;28;20518;-66
2021/10/12 06:41:06;;;;;;;36.40;13.52;;;;;;;;;;5064578;28;20048;-64
2021/10/12 06:43:35;;;;;;;30.95;12.13;;;;;;;;;;5066479;28;20140;-69
2021/10/12 06:46:03;;;;;;;33.50;13.00;;;;;;;;;;5054721;28;20143;-68
2021/10/12 06:48:32;;;;;;;33.30;13.18;;;;;;;;;;5064306;28;20087;-65
2021/10/12 06:51:02;;;;;;;33.97;13.25;;;;;;;;;;5069254;28;20044;-65
2021/10/12 06:53:48;;;;;;;37.85;14.43;;;;;;;;;;5068323;28;20480;-64
2021/10/12 06:56:17;;;;;;;36.28;13.32;;;;;;;;;;5069755;28;20048;-64
2021/10/12 06:58:45;;;;;;;34.58;13.48;;;;;;;;;;5068991;28;20505;-64
2021/10/12 07:01:21;;;;;;;35.85;13.45;;;;;;;;;;5054346;28;20045;-64
2021/10/12 07:03:50;;;;;;;32.38;13.00;;;;;;;;;;5068967;28;20547;-65
2021/10/12 07:06:21;;;;;;;36.47;13.18;;;;;;;;;;5064831;28;20060;-70
2021/10/12 07:08:49;;;;;;;39.63;14.45;;;;;;;;;;5067737;28;20044;-68
2021/10/12 07:11:18;;;;;;;38.40;14.10;;;;;;;;;;5069037;28;20101;-65
2021/10/12 07:13:48;;;;;;;38.03;13.82;;;;;;;;;;5066435;28;20131;-67
2021/10/12 07:16:21;;;;;;;36.13;14.20;;;;;;;;;;5068158;28;20049;-65
2021/10/12 07:18:50;;;;;;;39.10;14.40;;;;;;;;;;5076501;28;20105;-68
2021/10/12 07:21:20;;;;;;;33.97;13.57;;;;;;;;;;5065882;28;20076;-70
2021/10/12 07:23:49;;;;;;;36.30;13.05;;;;;;;;;;5066096;28;20052;-68
2021/10/12 07:26:17;;;;;;;41.08;13.95;;;;;;;;;;5067230;28;20044;-64
2021/10/12 07:28:46;;;;;;;35.40;13.60;;;;;;;;;;5060702;28;20072;-64
2021/10/12 07:31:14;;;;;;;31.58;12.90;;;;;;;;;;5064524;28;20048;-66
2021/10/12 07:33:43;;;;;;;31.58;13.63;;;;;;;;;;5061635;28;20546;-65
2021/10/12 07:36:12;;;;;;;40.42;15.25;;;;;;;;;;5069158;28;20048;-69
2021/10/12 07:38:42;;;;;;;35.22;13.38;;;;;;;;;;5065940;28;20049;-64
2021/10/12 07:41:27;;;;;;;38.85;14.10;;;;;;;;;;5067744;28;20141;-67
2021/10/12 07:43:56;;;;;;;32.90;13.80;;;;;;;;;;5069483;28;20064;-65
2021/10/12 07:46:25;;;;;;;36.70;14.13;;;;;;;;;;5067936;28;20040;-67
2021/10/12 07:48:58;;;;;;;35.15;12.70;;;;;;;;;;5072769;28;20494;-63
2021/10/12 07:51:40;;;;;;;35.85;14.05;;;;;;;;;;5068336;28;20088;-65
2021/10/12 07:54:15;;;;;;;35.22;13.82;;;;;;;;;;5066417;28;20049;-65
2021/10/12 07:56:43;;;;;;;35.22;15.38;;;;;;;;;;5070642;28;20485;-65
2021/10/12 07:59:13;;;;;;;37.05;13.93;;;;;;;;;;5071290;28;20040;-64
2021/10/12 08:01:42;;;;;;;35.72;14.10;;;;;;;;;;5070931;28;20040;-63
2021/10/12 08:04:12;;;;;;;37.47;13.95;;;;;;;;;;5069608;28;20147;-64
2021/10/12 08:06:40;;;;;;;36.97;15.80;;;;;;;;;;5071191;28;20059;-67
2021/10/12 08:09:10;;;;;;;41.03;14.18;;;;;;;;;;5064655;28;20127;-63
2021/10/12 08:11:39;;;;;;;35.75;13.60;;;;;;;;;;5067883;28;20563;-66
2021/10/12 08:14:10;;;;;;;37.78;13.43;;;;;;;;;;5065216;28;20148;-65
2021/10/12 08:16:44;;;;;;;31.95;13.23;;;;;;;;;;5067616;28;20638;-63
2021/10/12 08:19:13;;;;;;;31.42;12.82;;;;;;;;;;5071652;28;20048;-63
2021/10/12 08:21:43;;;;;;;35.72;14.55;;;;;;;;;;5071838;28;20392;-65
2021/10/12 08:24:17;;;;;;;38.67;14.35;;;;;;;;;;5068339;28;20064;-64
2021/10/12 08:26:46;;;;;;;27.58;12.18;;;;;;;;;;5070097;28;20155;-63
2021/10/12 08:29:15;;;;;;;28.00;10.88;;;;;;;;;;5071018;28;20041;-64
2021/10/12 08:31:44;;;;;;;32.08;11.98;;;;;;;;;;5069891;28;20102;-64
2021/10/12 08:34:13;;;;;;;23.83;10.68;;;;;;;;;;5071187;28;20052;-63
2021/10/12 08:36:42;;;;;;;31.00;12.57;;;;;;;;;;5070554;28;20056;-63
2021/10/12 08:39:11;;;;;;;30.48;12.23;;;;;;;;;;5071780;28;20075;-64
2021/10/12 08:41:45;;;;;;;30.00;12.48;;;;;;;;;;5068004;28;20143;-67
2021/10/12 08:44:14;;;;;;;26.45;11.32;;;;;;;;;;5066142;28;20068;-66
2021/10/12 08:46:43;;;;;;;28.73;11.13;;;;;;;;;;5057543;28;20056;-64
2021/10/12 08:49:12;;;;;;;31.25;11.38;;;;;;;;;;5059343;28;20052;-64
2021/10/12 08:51:43;;;;;;;33.95;11.55;;;;;;;;;;5069239;28;20075;-64
2021/10/12 08:54:16;;;;;;;33.45;12.38;;;;;;;;;;5069794;28;20056;-64
2021/10/12 08:56:45;;;;;;;31.20;11.93;;;;;;;;;;5071480;28;20131;-64
2021/10/12 08:59:14;;;;;;;30.35;12.38;;;;;;;;;;5068453;28;20536;-66
2021/10/12 09:01:56;;;;;;;29.50;11.65;;;;;;;;;;5070086;28;20080;-64
2021/10/12 09:04:24;;;;;;;27.15;11.73;;;;;;;;;;5067528;28;20076;-66
2021/10/12 09:06:54;;;;;;;24.88;12.52;;;;;;;;;;5075587;28;20056;-64
2021/10/12 09:09:34;;;;;;;27.45;10.50;;;;;;;;;;5068537;28;20048;-65
2021/10/12 09:12:05;;;;;;;28.70;10.52;;;;;;;;;;5070574;28;20492;-63
2021/10/12 09:14:34;;;;;;;26.88;10.30;;;;;;;;;;5063296;28;20056;-63
2021/10/12 09:17:07;;;;;;;26.20;10.10;;;;;;;;;;5058389;28;20492;-65
2021/10/12 09:19:35;;;;;;;21.88;9.73;;;;;;;;;;5065174;28;20055;-65
2021/10/12 09:22:06;;;;;;;28.25;9.88;;;;;;;;;;5055066;28;20171;-64
2021/10/12 09:24:38;;;;;;;25.88;10.70;;;;;;;;;;5068927;28;20053;-64
2021/10/12 09:27:10;;;;;;;23.40;10.18;;;;;;;;;;5071810;28;20083;-63
2021/10/12 09:29:45;;;;;;;22.02;10.48;;;;;;;;;;5070770;28;20095;-64
2021/10/12 09:32:14;;;;;;;24.67;10.32;;;;;;;;;;5067480;28;20123;-63
2021/10/12 09:34:44;;;;;;;21.65;10.15;;;;;;;;;;5069237;28;20481;-64
2021/10/12 09:37:17;;;;;;;28.65;10.20;;;;;;;;;;5064471;28;20044;-64
2021/10/12 09:39:48;;;;;;;23.58;10.60;;;;;;;;;;5065584;28;20048;-66
2021/10/12 09:42:20;;;;;;;28.98;10.27;;;;;;;;;;5069130;28;20044;-63
2021/10/12 09:44:53;;;;;;;23.55;10.23;;;;;;;;;;5067599;28;20056;-66
2021/10/12 09:47:22;;;;;;;24.92;10.20;;;;;;;;;;5069365;28;20110;-64
2021/10/12 09:49:50;;;;;;;22.48;10.05;;;;;;;;;;5060094;28;20049;-65
2021/10/12 09:52:21;;;;;;;25.35;11.60;;;;;;;;;;5058261;28;20118;-65
2021/10/12 09:54:52;;;;;;;27.33;10.95;;;;;;;;;;5061237;28;20041;-66
2021/10/12 09:57:23;;;;;;;28.33;10.32;;;;;;;;;;5075154;28;20045;-63
2021/10/12 09:59:52;;;;;;;28.25;11.23;;;;;;;;;;5069201;28;20484;-63
2021/10/12 10:02:21;;;;;;;27.27;10.30;;;;;;;;;;5070670;28;20048;-64
2021/10/12 10:04:51;;;;;;;27.52;10.63;;;;;;;;;;5069156;28;20048;-67
2021/10/12 10:07:22;;;;;;;28.20;10.90;;;;;;;;;;5065327;28;20458;-66
2021/10/12 10:09:50;;;;;;;23.98;9.80;;;;;;;;;;5068249;28;20040;-65
2021/10/12 10:12:19;;;;;;;26.67;10.60;;;;;;;;;;5065299;28;20044;-63
2021/10/12 10:14:49;;;;;;;21.58;10.85;;;;;;;;;;5067378;28;20057;-66
2021/10/12 10:17:17;;;;;;;24.98;10.13;;;;;;;;;;5069015;28;20388;-64
2021/10/12 10:19:47;;;;;;;20.00;9.13;;;;;;;;;;5069730;28;20045;-63
2021/10/12 10:22:30;;;;;;;25.52;9.20;;;;;;;;;;5063835;28;20373;-63
2021/10/12 10:24:59;;;;;;;19.00;7.65;;;;;;;;;;5056898;28;20079;-67
2021/10/12 10:27:32;;;;;;;22.40;8.68;;;;;;;;;;5067821;28;20037;-63
2021/10/12 10:30:19;;;;;;;19.63;7.93;;;;;;;;;;5049812;28;20091;-65
2021/10/12 10:32:49;;;;;;;19.38;8.13;;;;;;;;;;5058778;28;20053;-64
2021/10/12 10:35:32;;;;;;;20.60;8.52;;;;;;;;;;5061031;28;20088;-64
2021/10/12 10:38:16;;;;;;;18.52;7.75;;;;;;;;;;5069696;28;20056;-67
2021/10/12 10:40:44;;;;;;;18.42;7.53;;;;;;;;;;5060767;28;20041;-64
2021/10/12 10:43:13;;;;;;;18.15;7.95;;;;;;;;;;5056605;28;20451;-63
2021/10/12 10:45:59;;;;;;;20.70;8.13;;;;;;;;;;5054823;28;20061;-64
2021/10/12 10:48:40;;;;;;;17.83;7.90;;;;;;;;;;5055841;28;20042;-64
2021/10/12 10:51:22;;;;;;;16.55;8.10;;;;;;;;;;5054767;28;20060;-65
2021/10/12 10:53:51;;;;;;;;;;;;;;;;;;5054932;28;20045;-65
2021/10/12 10:56:22;;;;;;;14.93;7.20;;;;;;;;;;5052862;28;19979;-67
2021/10/12 10:59:10;;;;;;;19.70;8.00;;;;;;;;;;5075114;28;20051;-65
2021/10/12 11:01:38;;;;;;;15.85;7.00;;;;;;;;;;5053844;28;20057;-63
2021/10/12 11:04:28;;;;;;;15.88;6.90;;;;;;;;;;5063363;28;20491;-64
2021/10/12 11:07:01;;;;;;;18.17;8.13;;;;;;;;;;5064437;28;20056;-65
2021/10/12 11:09:29;;;;;;;15.05;7.35;;;;;;;;;;5066498;28;20087;-67
2021/10/12 11:11:57;;;;;;;16.60;8.05;;;;;;;;;;5055980;28;20112;-63
2021/10/12 11:14:30;;;;;;;17.75;7.65;;;;;;;;;;5057852;28;20068;-68
2021/10/12 11:17:09;;;;;;;17.05;7.57;;;;;;;;;;5069172;28;20053;-64
2021/10/12 11:19:52;;;;;;;17.55;8.18;;;;;;;;;;5059715;28;20053;-65
2021/10/12 11:22:22;;;;;;;18.17;8.05;;;;;;;;;;5063460;28;20053;-65
2021/10/12 11:24:51;;;;;;;19.90;7.72;;;;;;;;;;5055747;28;20117;-65
2021/10/12 11:27:42;;;;;;;18.38;7.45;;;;;;;;;;5065247;28;20163;-64
2021/10/12 11:30:11;;;;;;;15.55;7.07;;;;;;;;;;5062252;28;20527;-64
2021/10/12 11:32:40;;;;;;;17.52;7.55;;;;;;;;;;5067583;28;20087;-66
2021/10/12 11:35:09;;;;;;;16.88;7.13;;;;;;;;;;5063542;28;20861;-65
2021/10/12 11:37:52;;;;;;;17.67;6.88;;;;;;;;;;5058232;28;20049;-63
2021/10/12 11:40:22;;;;;;;15.30;6.47;;;;;;;;;;5064800;28;20080;-65
2021/10/12 11:42:51;;;;;;;14.98;6.93;;;;;;;;;;5064787;28;20076;-64
2021/10/12 11:45:20;;;;;;;10.82;5.43;;;;;;;;;;5053838;28;20064;-65
2021/10/12 11:47:49;;;;;;;16.42;5.97;;;;;;;;;;5067099;28;20060;-63
2021/10/12 11:50:18;;;;;;;9.57;5.20;;;;;;;;;;5058052;28;20055;-63
2021/10/12 11:52:47;;;;;;;15.15;6.65;;;;;;;;;;5064995;28;20052;-63
2021/10/12 11:55:18;;;;;;;12.55;5.60;;;;;;;;;;5058831;28;20045;-65
2021/10/12 11:57:47;;;;;;;13.95;5.60;;;;;;;;;;5066797;28;20094;-63
2021/10/12 12:00:16;;;;;;;11.38;5.03;;;;;;;;;;5072045;28;20068;-63
2021/10/12 12:02:45;;;;;;;10.00;5.20;;;;;;;;;;5061702;28;20551;-63
2021/10/12 12:05:14;;;;;;;8.95;5.05;;;;;;;;;;5064271;28;20511;-64
2021/10/12 12:07:45;;;;;;;12.68;5.40;;;;;;;;;;5067211;28;20540;-63
2021/10/12 12:10:15;;;;;;;12.40;5.50;;;;;;;;;;5059351;28;20107;-63
2021/10/12 12:12:46;;;;;;;9.63;4.85;;;;;;;;;;5055047;28;20424;-62
2021/10/12 12:15:14;;;;;;;6.70;4.25;;;;;;;;;;5064498;28;20084;-62
2021/10/12 12:17:43;;;;;;;7.57;4.32;;;;;;;;;;5064436;28;20127;-61
2021/10/12 12:20:13;;;;;;;10.43;4.40;;;;;;;;;;5069492;28;20067;-63
2021/10/12 12:22:42;;;;;;;9.57;4.63;;;;;;;;;;5060349;28;20084;-63
2021/10/12 12:25:14;;;;;;;8.82;3.95;;;;;;;;;;5058261;28;20688;-63
2021/10/12 12:27:54;;;;;;;11.13;4.53;;;;;;;;;;5066119;28;20048;-63
2021/10/12 12:30:32;;;;;;;9.82;4.28;;;;;;;;;;5050162;28;20045;-62
2021/10/12 12:33:01;;;;;;;10.23;4.43;;;;;;;;;;5059895;28;20508;-63
2021/10/12 12:35:29;;;;;;;8.70;4.82;;;;;;;;;;5064197;28;20060;-64
2021/10/12 12:37:58;;;;;;;8.80;3.97;;;;;;;;;;5070066;28;20052;-63
2021/10/12 12:40:28;;;;;;;12.73;4.63;;;;;;;;;;5069038;28;20058;-64
2021/10/12 12:42:58;;;;;;;9.23;4.05;;;;;;;;;;5086432;28;20203;-64
2021/10/12 12:45:28;;;;;;;9.30;4.53;;;;;;;;;;5039643;28;1154696;-64
2021/10/12 12:47:58;;;;;;;13.30;4.72;;;;;;;;;;5062940;28;20068;-64
2021/10/12 12:50:27;;;;;;;10.98;5.55;;;;;;;;;;5062403;28;20063;-62
2021/10/12 12:52:57;;;;;;;10.20;4.80;;;;;;;;;;5064896;28;20507;-63
2021/10/12 12:55:35;;;;;;;11.23;4.88;;;;;;;;;;5067877;28;20037;-63
2021/10/12 12:58:06;;;;;;;9.30;4.72;;;;;;;;;;5068243;28;20135;-63
2021/10/12 13:00:36;;;;;;;9.30;4.25;;;;;;;;;;5059912;28;20052;-63
2021/10/12 13:03:05;;;;;;;9.80;3.95;;;;;;;;;;5067220;28;20045;-63
2021/10/12 13:05:34;;;;;;;9.82;4.25;;;;;;;;;;5073510;28;20056;-64
2021/10/12 13:08:03;;;;;;;6.18;3.42;;;;;;;;;;5066742;28;20053;-64
2021/10/12 13:10:31;;;;;;;10.65;3.92;;;;;;;;;;5065117;28;20613;-66
2021/10/12 13:13:00;;;;;;;9.63;3.70;;;;;;;;;;5068252;28;20053;-63
2021/10/12 13:15:30;;;;;;;7.70;3.15;;;;;;;;;;5063806;28;20052;-64
2021/10/12 13:17:58;;;;;;;7.03;3.75;;;;;;;;;;5053718;28;20106;-64
2021/10/12 13:20:27;;;;;;;7.80;3.80;;;;;;;;;;5066062;28;20040;-62
2021/10/12 13:22:55;;;;;;;11.75;4.63;;;;;;;;;;5073408;28;20135;-62
2021/10/12 13:25:23;;;;;;;9.25;4.53;;;;;;;;;;5070981;28;20087;-63
2021/10/12 13:27:52;;;;;;;10.93;5.85;;;;;;;;;;5069743;28;20082;-64
2021/10/12 13:30:20;;;;;;;13.15;5.82;;;;;;;;;;5070480;28;20076;-65
2021/10/12 13:32:50;;;;;;;14.48;6.13;;;;;;;;;;5068161;28;20511;-65
2021/10/12 13:35:19;;;;;;;14.32;6.13;;;;;;;;;;5072024;28;20044;-64
2021/10/12 13:37:48;;;;;;;13.88;6.32;;;;;;;;;;5064368;28;20139;-64
2021/10/12 13:40:16;;;;;;;13.43;5.93;;;;;;;;;;5075236;28;20436;-63
2021/10/12 13:42:45;;;;;;;16.83;7.07;;;;;;;;;;5072125;28;20133;-63
2021/10/12 13:45:14;;;;;;;18.23;7.65;;;;;;;;;;5054883;28;20400;-63
2021/10/12 13:47:43;;;;;;;17.30;8.23;;;;;;;;;;5069006;28;20052;-64
2021/10/12 13:50:14;;;;;;;16.10;7.50;;;;;;;;;;5069929;28;20412;-63
2021/10/12 13:52:43;;;;;;;17.88;8.32;;;;;;;;;;5060681;28;20079;-65
2021/10/12 13:55:11;;;;;;;20.20;7.90;;;;;;;;;;5065824;28;20052;-64
2021/10/12 13:57:40;;;;;;;17.02;7.63;;;;;;;;;;5063061;28;20450;-64
2021/10/12 14:00:09;;;;;;;17.15;7.55;;;;;;;;;;5069282;28;20060;-65
2021/10/12 14:02:39;;;;;;;17.83;6.80;;;;;;;;;;5048115;28;20049;-64
2021/10/12 14:05:09;;;;;;;13.15;6.82;;;;;;;;;;5065451;28;20566;-64
2021/10/12 14:07:39;;;;;;;18.00;7.68;;;;;;;;;;5064051;28;20059;-64
2021/10/12 14:10:09;;;;;;;15.57;6.70;;;;;;;;;;5061768;28;20048;-64
2021/10/12 14:12:39;;;;;;;16.48;7.05;;;;;;;;;;5063669;28;20044;-65
2021/10/12 14:15:09;;;;;;;17.52;7.28;;;;;;;;;;5067530;28;20087;-63
2021/10/12 14:17:37;;;;;;;14.18;6.32;;;;;;;;;;5068748;28;20053;-65
2021/10/12 14:20:14;;;;;;;13.93;6.75;;;;;;;;;;5063668;28;20045;-64
2021/10/12 14:22:46;;;;;;;12.18;6.10;;;;;;;;;;5068314;28;20036;-64
2021/10/12 14:25:15;;;;;;;16.13;7.03;;;;;;;;;;5065254;28;20048;-63
2021/10/12 14:27:44;;;;;;;13.60;6.30;;;;;;;;;;5052083;28;20493;-63
2021/10/12 14:30:12;;;;;;;13.90;6.43;;;;;;;;;;5055943;28;20045;-65
2021/10/12 14:32:41;;;;;;;11.00;5.45;;;;;;;;;;5060297;28;20441;-64
2021/10/12 14:35:10;;;;;;;14.02;5.90;;;;;;;;;;5066295;28;20075;-64
2021/10/12 14:37:40;;;;;;;7.82;4.93;;;;;;;;;;5067272;28;20488;-64
2021/10/12 14:40:11;;;;;;;11.40;5.53;;;;;;;;;;5061639;28;20053;-65
2021/10/12 14:42:39;;;;;;;9.50;5.10;;;;;;;;;;5056158;28;20040;-64